createdAt,value
2018-03-04T00:01:07.641Z,987.58
2018-03-04T00:02:07.609Z,987.53
2018-03-04T00:04:00.949Z,987.55
2018-03-04T00:05:00.901Z,987.56
2018-03-04T00:06:54.237Z,987.53
2018-03-04T00:07:54.204Z,987.56
2018-03-04T00:09:47.535Z,987.54
2018-03-04T00:10:47.502Z,987.50
2018-03-04T00:12:41.814Z,987.53
2018-03-04T00:13:41.816Z,987.52
2018-03-04T00:15:34.640Z,987.46
2018-03-04T00:16:34.582Z,987.44
2018-03-04T00:18:27.913Z,987.36
2018-03-04T00:19:27.892Z,987.39
2018-03-04T00:21:21.232Z,987.35
2018-03-04T00:22:21.194Z,987.36
2018-03-04T00:24:14.028Z,987.38
2018-03-04T00:25:13.983Z,987.37
2018-03-04T00:27:07.323Z,987.33
2018-03-04T00:28:07.266Z,987.34
2018-03-04T00:30:00.588Z,987.41
2018-03-04T00:31:00.574Z,987.44
2018-03-04T00:32:53.395Z,987.47
2018-03-04T00:33:53.358Z,987.51
2018-03-04T00:35:46.677Z,987.51
2018-03-04T00:36:46.673Z,987.52
2018-03-04T00:38:39.988Z,987.49
2018-03-04T00:39:39.945Z,987.49
2018-03-04T00:41:33.266Z,987.52
2018-03-04T00:42:33.247Z,987.50
2018-03-04T00:44:26.565Z,987.50
2018-03-04T00:45:26.540Z,987.44
2018-03-04T00:47:20.852Z,987.37
2018-03-04T00:48:20.826Z,987.39
2018-03-04T00:50:14.168Z,987.36
2018-03-04T00:51:14.143Z,987.34
2018-03-04T00:53:07.447Z,987.40
2018-03-04T00:54:07.417Z,987.38
2018-03-04T00:56:00.765Z,987.40
2018-03-04T00:57:00.716Z,987.42
2018-03-04T00:58:54.054Z,987.45
2018-03-04T00:59:54.012Z,987.43
2018-03-04T01:01:47.358Z,987.44
2018-03-04T01:02:47.316Z,987.42
2018-03-04T01:04:40.621Z,987.45
2018-03-04T01:05:40.592Z,987.42
2018-03-04T01:07:33.957Z,987.40
2018-03-04T01:08:33.895Z,987.41
2018-03-04T01:10:27.219Z,987.46
2018-03-04T01:11:27.200Z,987.41
2018-03-04T01:13:20.521Z,987.35
2018-03-04T01:14:20.478Z,987.34
2018-03-04T01:16:13.820Z,987.27
2018-03-04T01:17:13.778Z,987.22
2018-03-04T01:19:07.116Z,987.28
2018-03-04T01:20:07.074Z,987.24
2018-03-04T01:22:00.393Z,987.31
2018-03-04T01:23:00.374Z,987.29
2018-03-04T01:24:53.703Z,987.29
2018-03-04T01:25:53.669Z,987.22
2018-03-04T01:27:46.975Z,987.19
2018-03-04T01:28:46.968Z,987.25
2018-03-04T01:30:40.321Z,987.32
2018-03-04T01:31:40.277Z,987.32
2018-03-04T01:33:33.590Z,987.36
2018-03-04T01:34:33.563Z,987.35
2018-03-04T01:36:26.903Z,987.24
2018-03-04T01:37:26.853Z,987.24
2018-03-04T01:39:20.180Z,987.32
2018-03-04T01:40:20.158Z,987.34
2018-03-04T01:42:13.476Z,987.34
2018-03-04T01:43:13.441Z,987.36
2018-03-04T01:45:06.754Z,987.39
2018-03-04T01:46:06.726Z,987.44
2018-03-04T01:48:00.139Z,987.48
2018-03-04T01:49:00.030Z,987.45
2018-03-04T01:50:53.354Z,987.48
2018-03-04T01:51:53.318Z,987.51
2018-03-04T01:53:47.670Z,987.47
2018-03-04T01:54:47.608Z,987.53
2018-03-04T01:56:40.942Z,987.53
2018-03-04T01:57:40.904Z,987.56
2018-03-04T01:59:34.254Z,987.57
2018-03-04T02:00:34.207Z,987.58
2018-03-04T02:02:27.518Z,987.66
2018-03-04T02:03:27.502Z,987.59
2018-03-04T02:05:20.337Z,987.61
2018-03-04T02:06:20.291Z,987.64
2018-03-04T02:08:13.126Z,987.69
2018-03-04T02:09:13.103Z,987.75
2018-03-04T02:11:05.928Z,987.83
2018-03-04T02:12:05.884Z,987.78
2018-03-04T02:13:59.200Z,987.74
2018-03-04T02:14:59.175Z,987.72
2018-03-04T02:16:52.511Z,987.72
2018-03-04T02:17:52.478Z,987.65
2018-03-04T02:19:45.799Z,987.67
2018-03-04T02:20:45.765Z,987.65
2018-03-04T02:22:39.096Z,987.76
2018-03-04T02:23:39.048Z,987.71
2018-03-04T02:25:32.372Z,987.70
2018-03-04T02:26:32.344Z,987.64
2018-03-04T02:28:25.184Z,987.50
2018-03-04T02:29:25.151Z,987.52
2018-03-04T02:31:18.463Z,987.49
2018-03-04T02:32:18.434Z,987.43
2018-03-04T02:34:11.773Z,987.34
2018-03-04T02:35:11.732Z,987.32
2018-03-04T02:37:05.055Z,987.31
2018-03-04T02:38:05.025Z,987.29
2018-03-04T02:39:58.375Z,987.28
2018-03-04T02:40:58.326Z,987.25
2018-03-04T02:42:51.647Z,987.31
2018-03-04T02:43:51.624Z,987.32
2018-03-04T02:45:44.958Z,987.33
2018-03-04T02:46:44.927Z,987.30
2018-03-04T02:48:38.228Z,987.28
2018-03-04T02:49:38.198Z,987.27
2018-03-04T02:51:31.604Z,987.26
2018-03-04T02:52:31.572Z,987.19
2018-03-04T02:54:24.887Z,987.08
2018-03-04T02:55:24.856Z,987.12
2018-03-04T02:57:18.191Z,987.09
2018-03-04T02:58:18.164Z,987.02
2018-03-04T03:00:11.465Z,987.05
2018-03-04T03:01:11.447Z,987.05
2018-03-04T03:03:04.783Z,986.99
2018-03-04T03:04:04.732Z,987.08
2018-03-04T03:05:58.052Z,986.95
2018-03-04T03:06:58.047Z,986.88
2018-03-04T03:08:51.368Z,986.84
2018-03-04T03:09:51.333Z,986.88
2018-03-04T03:11:44.651Z,986.91
2018-03-04T03:12:44.625Z,986.94
2018-03-04T03:14:37.960Z,987.01
2018-03-04T03:15:37.922Z,986.99
2018-03-04T03:17:31.255Z,987.05
2018-03-04T03:18:31.227Z,987.07
2018-03-04T03:20:25.551Z,987.05
2018-03-04T03:21:25.499Z,987.05
2018-03-04T03:23:18.841Z,987.05
2018-03-04T03:24:18.825Z,987.06
2018-03-04T03:26:12.133Z,987.06
2018-03-04T03:27:12.099Z,987.07
2018-03-04T03:29:04.942Z,987.01
2018-03-04T03:30:04.895Z,987.04
2018-03-04T03:31:57.962Z,987.00
2018-03-04T03:32:57.693Z,987.06
2018-03-04T03:34:51.021Z,987.04
2018-03-04T03:35:50.984Z,987.02
2018-03-04T03:37:44.330Z,987.00
2018-03-04T03:38:44.281Z,986.95
2018-03-04T03:40:37.609Z,986.90
2018-03-04T03:41:37.580Z,986.92
2018-03-04T03:43:30.912Z,986.90
2018-03-04T03:44:30.864Z,986.87
2018-03-04T03:46:24.206Z,986.79
2018-03-04T03:47:24.159Z,986.72
2018-03-04T03:49:17.512Z,986.77
2018-03-04T03:50:17.457Z,986.75
2018-03-04T03:52:10.288Z,986.78
2018-03-04T03:53:10.248Z,986.79
2018-03-04T03:55:03.582Z,986.82
2018-03-04T03:56:03.553Z,986.84
2018-03-04T03:57:56.863Z,986.88
2018-03-04T03:58:56.838Z,986.92
2018-03-04T04:00:50.180Z,986.87
2018-03-04T04:01:50.136Z,986.89
2018-03-04T04:03:43.453Z,986.92
2018-03-04T04:04:43.437Z,986.91
2018-03-04T04:06:36.773Z,986.93
2018-03-04T04:07:36.732Z,986.92
2018-03-04T04:09:30.053Z,986.92
2018-03-04T04:10:30.023Z,986.89
2018-03-04T04:12:23.372Z,986.83
2018-03-04T04:13:23.342Z,986.86
2018-03-04T04:15:16.138Z,986.82
2018-03-04T04:16:16.121Z,986.77
2018-03-04T04:18:09.446Z,986.78
2018-03-04T04:19:09.406Z,986.79
2018-03-04T04:21:02.732Z,986.84
2018-03-04T04:22:02.705Z,986.84
2018-03-04T04:23:56.040Z,986.86
2018-03-04T04:24:56.004Z,986.84
2018-03-04T04:26:49.313Z,986.87
2018-03-04T04:27:49.305Z,986.86
2018-03-04T04:29:42.632Z,986.89
2018-03-04T04:30:42.573Z,986.91
2018-03-04T04:32:35.913Z,986.91
2018-03-04T04:33:35.897Z,986.87
2018-03-04T04:35:29.237Z,986.85
2018-03-04T04:36:29.162Z,986.88
2018-03-04T04:38:21.999Z,986.83
2018-03-04T04:39:21.953Z,986.85
2018-03-04T04:41:15.292Z,986.83
2018-03-04T04:42:15.266Z,986.86
2018-03-04T04:44:08.584Z,986.81
2018-03-04T04:45:08.563Z,986.81
2018-03-04T04:47:01.896Z,986.77
2018-03-04T04:48:01.860Z,986.76
2018-03-04T04:49:55.191Z,986.77
2018-03-04T04:50:55.163Z,986.72
2018-03-04T04:52:48.467Z,986.69
2018-03-04T04:53:48.457Z,986.68
2018-03-04T04:55:41.264Z,986.65
2018-03-04T04:56:41.227Z,986.62
2018-03-04T04:58:34.583Z,986.67
2018-03-04T04:59:34.520Z,986.67
2018-03-04T05:01:27.855Z,986.69
2018-03-04T05:02:27.819Z,986.69
2018-03-04T05:04:21.161Z,986.69
2018-03-04T05:05:21.111Z,986.66
2018-03-04T05:07:14.447Z,986.69
2018-03-04T05:08:14.406Z,986.70
2018-03-04T05:10:07.752Z,986.71
2018-03-04T05:11:07.714Z,986.77
2018-03-04T05:13:01.023Z,986.70
2018-03-04T05:14:01.005Z,986.72
2018-03-04T05:15:54.345Z,986.68
2018-03-04T05:16:54.292Z,986.73
2018-03-04T05:18:47.629Z,986.76
2018-03-04T05:19:47.586Z,986.71
2018-03-04T05:21:40.939Z,986.73
2018-03-04T05:22:40.896Z,986.73
2018-03-04T05:24:34.209Z,986.76
2018-03-04T05:25:34.188Z,986.72
2018-03-04T05:27:27.536Z,986.73
2018-03-04T05:28:27.484Z,986.81
2018-03-04T05:30:20.296Z,986.81
2018-03-04T05:31:20.279Z,986.83
2018-03-04T05:33:13.594Z,986.84
2018-03-04T05:34:13.563Z,986.84
2018-03-04T05:36:06.875Z,986.84
2018-03-04T05:37:06.858Z,986.77
2018-03-04T05:39:00.198Z,986.78
2018-03-04T05:40:00.158Z,986.80
2018-03-04T05:41:53.465Z,986.77
2018-03-04T05:42:53.452Z,986.72
2018-03-04T05:44:46.777Z,986.70
2018-03-04T05:45:46.734Z,986.67
2018-03-04T05:47:40.078Z,986.64
2018-03-04T05:48:40.061Z,986.65
2018-03-04T05:50:33.387Z,986.59
2018-03-04T05:51:33.334Z,986.52
2018-03-04T05:53:26.663Z,986.51
2018-03-04T05:54:26.633Z,986.43
2018-03-04T05:56:19.981Z,986.47
2018-03-04T05:57:19.926Z,986.43
2018-03-04T05:59:13.252Z,986.38
2018-03-04T06:00:13.240Z,986.31
2018-03-04T06:02:06.586Z,986.28
2018-03-04T06:03:06.528Z,986.26
2018-03-04T06:04:59.859Z,986.25
2018-03-04T06:05:59.828Z,986.23
2018-03-04T06:07:53.158Z,986.16
2018-03-04T06:08:53.126Z,986.13
2018-03-04T06:10:46.435Z,986.09
2018-03-04T06:11:46.406Z,986.13
2018-03-04T06:13:39.749Z,986.12
2018-03-04T06:14:39.700Z,986.08
2018-03-04T06:16:33.018Z,986.07
2018-03-04T06:17:33.001Z,986.06
2018-03-04T06:19:26.331Z,986.04
2018-03-04T06:20:26.288Z,986.05
2018-03-04T06:22:19.614Z,986.12
2018-03-04T06:23:19.577Z,986.14
2018-03-04T06:25:12.906Z,986.14
2018-03-04T06:26:12.867Z,986.20
2018-03-04T06:28:06.197Z,986.36
2018-03-04T06:29:06.179Z,986.44
2018-03-04T06:30:59.524Z,986.56
2018-03-04T06:31:59.463Z,986.53
2018-03-04T06:33:52.778Z,986.55
2018-03-04T06:34:52.747Z,986.59
2018-03-04T06:36:46.105Z,986.59
2018-03-04T06:37:46.047Z,986.66
2018-03-04T06:39:39.377Z,986.72
2018-03-04T06:40:39.359Z,986.71
2018-03-04T06:42:32.688Z,986.74
2018-03-04T06:43:32.654Z,986.73
2018-03-04T06:45:25.975Z,986.75
2018-03-04T06:46:25.953Z,986.74
2018-03-04T06:48:19.276Z,986.70
2018-03-04T06:49:19.236Z,986.71
2018-03-04T06:51:12.564Z,986.69
2018-03-04T06:52:12.524Z,986.68
2018-03-04T06:54:05.859Z,986.71
2018-03-04T06:55:05.816Z,986.68
2018-03-04T06:56:59.136Z,986.64
2018-03-04T06:57:59.124Z,986.65
2018-03-04T06:59:52.443Z,986.60
2018-03-04T07:00:52.406Z,986.57
2018-03-04T07:02:45.735Z,986.59
2018-03-04T07:03:45.705Z,986.60
2018-03-04T07:05:39.036Z,986.57
2018-03-04T07:06:38.989Z,986.53
2018-03-04T07:08:32.314Z,986.47
2018-03-04T07:09:32.299Z,986.47
2018-03-04T07:11:25.629Z,986.46
2018-03-04T07:12:25.597Z,986.48
2018-03-04T07:14:18.917Z,986.52
2018-03-04T07:15:18.877Z,986.55
2018-03-04T07:17:12.201Z,986.53
2018-03-04T07:18:12.174Z,986.53
2018-03-04T07:20:04.998Z,986.50
2018-03-04T07:21:04.981Z,986.44
2018-03-04T07:22:58.309Z,986.44
2018-03-04T07:23:58.269Z,986.41
2018-03-04T07:25:51.584Z,986.44
2018-03-04T07:26:51.556Z,986.41
2018-03-04T07:28:44.901Z,986.33
2018-03-04T07:29:44.924Z,986.30
2018-03-04T07:31:38.180Z,986.28
2018-03-04T07:32:38.151Z,986.31
2018-03-04T07:34:31.503Z,986.37
2018-03-04T07:35:31.458Z,986.36
2018-03-04T07:37:25.760Z,986.27
2018-03-04T07:38:25.732Z,986.24
2018-03-04T07:40:19.107Z,986.22
2018-03-04T07:41:19.058Z,986.24
2018-03-04T07:43:12.374Z,986.17
2018-03-04T07:44:12.361Z,986.18
2018-03-04T07:46:05.207Z,986.11
2018-03-04T07:47:05.157Z,986.09
2018-03-04T07:48:58.478Z,986.07
2018-03-04T07:49:58.455Z,986.07
2018-03-04T07:51:51.820Z,986.09
2018-03-04T07:52:51.775Z,986.10
2018-03-04T07:54:45.099Z,986.15
2018-03-04T07:55:45.062Z,986.13
2018-03-04T07:57:37.898Z,986.20
2018-03-04T07:58:37.854Z,986.20
2018-03-04T08:00:31.172Z,986.20
2018-03-04T08:01:31.163Z,986.18
2018-03-04T08:03:24.485Z,986.14
2018-03-04T08:04:24.447Z,986.07
2018-03-04T08:06:17.758Z,986.11
2018-03-04T08:07:17.746Z,986.07
2018-03-04T08:09:11.110Z,986.18
2018-03-04T08:10:11.045Z,986.17
2018-03-04T08:12:04.375Z,986.24
2018-03-04T08:13:04.351Z,986.26
2018-03-04T08:14:57.680Z,986.27
2018-03-04T08:15:57.642Z,986.24
2018-03-04T08:17:50.460Z,986.22
2018-03-04T08:18:50.446Z,986.19
2018-03-04T08:20:43.790Z,986.21
2018-03-04T08:21:43.731Z,986.20
2018-03-04T08:23:37.058Z,986.15
2018-03-04T08:24:37.045Z,986.16
2018-03-04T08:26:30.366Z,986.11
2018-03-04T08:27:30.348Z,986.11
2018-03-04T08:29:23.650Z,986.12
2018-03-04T08:30:23.617Z,986.11
2018-03-04T08:32:16.960Z,986.11
2018-03-04T08:33:16.912Z,986.06
2018-03-04T08:35:10.244Z,986.09
2018-03-04T08:36:10.226Z,986.09
2018-03-04T08:38:03.545Z,986.10
2018-03-04T08:39:03.509Z,986.10
2018-03-04T08:40:56.813Z,986.03
2018-03-04T08:41:56.798Z,986.01
2018-03-04T08:43:50.138Z,985.95
2018-03-04T08:44:50.089Z,985.99
2018-03-04T08:46:43.412Z,986.00
2018-03-04T08:47:43.383Z,985.97
2018-03-04T08:49:36.728Z,985.94
2018-03-04T08:50:36.685Z,985.95
2018-03-04T08:52:30.002Z,985.90
2018-03-04T08:53:29.978Z,985.91
2018-03-04T08:55:23.310Z,985.95
2018-03-04T08:56:23.270Z,985.93
2018-03-04T08:58:16.587Z,985.90
2018-03-04T08:59:16.566Z,985.87
2018-03-04T09:01:09.919Z,985.85
2018-03-04T09:02:09.859Z,985.85
2018-03-04T09:04:03.210Z,985.87
2018-03-04T09:05:03.182Z,985.87
2018-03-04T09:06:56.498Z,985.90
2018-03-04T09:07:56.472Z,985.86
2018-03-04T09:09:49.780Z,985.90
2018-03-04T09:10:49.751Z,985.92
2018-03-04T09:12:43.095Z,985.97
2018-03-04T09:13:43.057Z,985.93
2018-03-04T09:15:36.382Z,986.00
2018-03-04T09:16:36.352Z,986.00
2018-03-04T09:18:29.689Z,985.92
2018-03-04T09:19:29.670Z,985.87
2018-03-04T09:21:22.988Z,985.77
2018-03-04T09:22:22.948Z,985.76
2018-03-04T09:24:16.292Z,985.71
2018-03-04T09:25:16.242Z,985.67
2018-03-04T09:27:09.566Z,985.49
2018-03-04T09:28:09.540Z,985.43
2018-03-04T09:30:02.377Z,985.34
2018-03-04T09:31:02.356Z,985.34
2018-03-04T09:32:55.671Z,985.34
2018-03-04T09:33:55.642Z,985.33
2018-03-04T09:35:48.982Z,985.31
2018-03-04T09:36:48.942Z,985.28
2018-03-04T09:38:42.262Z,985.23
2018-03-04T09:39:42.236Z,985.21
2018-03-04T09:41:35.572Z,985.16
2018-03-04T09:42:35.532Z,985.17
2018-03-04T09:44:28.866Z,985.13
2018-03-04T09:45:28.852Z,985.13
2018-03-04T09:47:21.681Z,985.11
2018-03-04T09:48:21.642Z,985.11
2018-03-04T09:50:14.970Z,985.08
2018-03-04T09:51:14.940Z,985.14
2018-03-04T09:53:08.284Z,985.16
2018-03-04T09:54:08.245Z,985.17
2018-03-04T09:56:02.565Z,985.18
2018-03-04T09:57:02.539Z,985.20
2018-03-04T09:58:55.373Z,985.22
2018-03-04T09:59:55.347Z,985.19
2018-03-04T10:01:48.670Z,985.21
2018-03-04T10:02:48.647Z,985.22
2018-03-04T10:04:41.991Z,985.21
2018-03-04T10:05:41.945Z,985.20
2018-03-04T10:07:35.270Z,985.16
2018-03-04T10:08:35.237Z,985.16
2018-03-04T10:10:28.581Z,985.14
2018-03-04T10:11:28.537Z,985.14
2018-03-04T10:13:21.871Z,985.13
2018-03-04T10:14:21.853Z,985.13
2018-03-04T10:16:16.208Z,985.10
2018-03-04T10:17:16.152Z,985.13
2018-03-04T10:19:09.572Z,985.18
2018-03-04T10:20:08.988Z,985.16
2018-03-04T10:22:02.337Z,985.11
2018-03-04T10:23:02.303Z,985.11
2018-03-04T10:24:55.634Z,985.09
2018-03-04T10:25:55.606Z,985.05
2018-03-04T10:27:48.467Z,985.02
2018-03-04T10:28:48.412Z,985.03
2018-03-04T10:30:41.760Z,985.04
2018-03-04T10:31:41.721Z,985.05
2018-03-04T10:33:34.572Z,985.11
2018-03-04T10:34:34.544Z,985.09
2018-03-04T10:36:27.851Z,985.09
2018-03-04T10:37:27.832Z,985.09
2018-03-04T10:39:22.158Z,985.05
2018-03-04T10:40:22.121Z,985.03
2018-03-04T10:42:14.956Z,985.02
2018-03-04T10:43:14.924Z,985.03
2018-03-04T10:45:08.280Z,985.02
2018-03-04T10:46:08.253Z,985.03
2018-03-04T10:48:01.588Z,985.05
2018-03-04T10:49:01.566Z,985.09
2018-03-04T10:50:54.933Z,985.03
2018-03-04T10:51:54.850Z,985.06
2018-03-04T10:53:48.194Z,985.09
2018-03-04T10:54:48.169Z,985.07
2018-03-04T10:56:41.507Z,985.08
2018-03-04T10:57:41.457Z,985.09
2018-03-04T10:59:34.782Z,985.09
2018-03-04T11:00:34.769Z,985.13
2018-03-04T11:02:28.112Z,985.16
2018-03-04T11:03:28.084Z,985.13
2018-03-04T11:05:21.416Z,985.09
2018-03-04T11:06:21.394Z,985.07
2018-03-04T11:08:14.743Z,985.04
2018-03-04T11:09:14.697Z,984.96
2018-03-04T11:11:08.042Z,985.00
2018-03-04T11:12:08.021Z,985.01
2018-03-04T11:14:01.356Z,984.99
2018-03-04T11:15:01.322Z,984.99
2018-03-04T11:16:54.656Z,984.96
2018-03-04T11:17:54.655Z,984.93
2018-03-04T11:19:49.369Z,984.86
2018-03-04T11:20:48.950Z,984.86
2018-03-04T11:22:41.775Z,984.80
2018-03-04T11:23:41.748Z,984.84
2018-03-04T11:25:35.089Z,984.77
2018-03-04T11:26:35.059Z,984.75
2018-03-04T11:28:28.418Z,984.75
2018-03-04T11:29:28.389Z,984.70
2018-03-04T11:31:21.817Z,984.66
2018-03-04T11:32:21.795Z,984.66
2018-03-04T11:34:15.058Z,984.67
2018-03-04T11:35:15.029Z,984.67
2018-03-04T11:37:08.360Z,984.67
2018-03-04T11:38:08.334Z,984.63
2018-03-04T11:40:01.729Z,984.61
2018-03-04T11:41:01.759Z,984.61
2018-03-04T11:42:55.061Z,984.54
2018-03-04T11:43:55.015Z,984.50
2018-03-04T11:45:48.334Z,984.51
2018-03-04T11:46:48.306Z,984.48
2018-03-04T11:48:42.679Z,984.48
2018-03-04T11:49:42.671Z,984.43
2018-03-04T11:51:35.943Z,984.37
2018-03-04T11:52:35.928Z,984.33
2018-03-04T11:54:29.371Z,984.35
2018-03-04T11:55:29.359Z,984.33
2018-03-04T11:57:22.703Z,984.34
2018-03-04T11:58:22.726Z,984.31
2018-03-04T12:00:17.005Z,984.28
2018-03-04T12:01:17.002Z,984.28
2018-03-04T12:03:10.290Z,984.20
2018-03-04T12:04:10.323Z,984.19
2018-03-04T12:06:03.632Z,984.12
2018-03-04T12:07:03.583Z,984.13
2018-03-04T12:08:56.938Z,984.07
2018-03-04T12:09:56.951Z,984.05
2018-03-04T12:11:50.240Z,983.91
2018-03-04T12:12:50.199Z,983.85
2018-03-04T12:14:43.532Z,983.80
2018-03-04T12:15:43.513Z,983.73
2018-03-04T12:17:36.355Z,983.69
2018-03-04T12:18:36.337Z,983.64
2018-03-04T12:20:29.639Z,983.58
2018-03-04T12:21:29.630Z,983.56
2018-03-04T12:23:23.022Z,983.55
2018-03-04T12:24:22.953Z,983.55
2018-03-04T12:26:16.852Z,983.46
2018-03-04T12:27:16.268Z,983.40
2018-03-04T12:32:02.865Z,983.41
2018-03-04T12:33:02.842Z,983.36
2018-03-04T12:34:56.711Z,983.24
2018-03-04T12:35:56.691Z,983.20
2018-03-04T12:37:49.535Z,983.12
2018-03-04T12:38:49.545Z,983.07
2018-03-04T12:40:42.910Z,983.02
2018-03-04T12:41:42.858Z,982.97
2018-03-04T12:43:36.233Z,982.99
2018-03-04T12:44:36.278Z,983.01
2018-03-04T12:46:29.591Z,983.01
2018-03-04T12:47:29.567Z,983.00
2018-03-04T12:49:22.885Z,982.98
2018-03-04T12:50:22.863Z,982.98
2018-03-04T12:52:16.227Z,982.95
2018-03-04T12:53:16.195Z,982.92
2018-03-04T12:55:09.570Z,983.00
2018-03-04T12:56:09.580Z,982.97
2018-03-04T12:58:02.896Z,982.91
2018-03-04T12:59:02.868Z,982.90
2018-03-04T13:00:56.240Z,982.86
2018-03-04T13:01:56.208Z,982.83
2018-03-04T13:03:49.578Z,982.72
2018-03-04T13:04:49.546Z,982.74
2018-03-04T13:06:42.893Z,982.69
2018-03-04T13:07:42.873Z,982.66
2018-03-04T13:09:36.237Z,982.59
2018-03-04T13:10:36.201Z,982.63
2018-03-04T13:12:29.570Z,982.60
2018-03-04T13:13:29.564Z,982.60
2018-03-04T13:15:22.430Z,982.58
2018-03-04T13:16:22.389Z,982.61
2018-03-04T13:18:15.265Z,982.65
2018-03-04T13:19:15.225Z,982.66
2018-03-04T13:21:08.095Z,982.62
2018-03-04T13:22:08.065Z,982.61
2018-03-04T13:24:00.926Z,982.57
2018-03-04T13:25:00.903Z,982.58
2018-03-04T13:26:53.775Z,982.59
2018-03-04T13:27:53.743Z,982.57
2018-03-04T13:29:46.604Z,982.60
2018-03-04T13:30:46.577Z,982.60
2018-03-04T13:32:39.457Z,982.55
2018-03-04T13:33:39.427Z,982.57
2018-03-04T13:35:32.278Z,982.62
2018-03-04T13:36:32.283Z,982.55
2018-03-04T13:38:25.201Z,982.50
2018-03-04T13:39:25.169Z,982.50
2018-03-04T13:41:18.023Z,982.52
2018-03-04T13:42:18.005Z,982.52
2018-03-04T13:44:10.894Z,982.51
2018-03-04T13:45:10.862Z,982.49
2018-03-04T13:47:03.718Z,982.46
2018-03-04T13:48:03.700Z,982.49
2018-03-04T13:49:56.569Z,982.46
2018-03-04T13:50:56.537Z,982.40
2018-03-04T13:52:49.409Z,982.40
2018-03-04T13:53:49.377Z,982.40
2018-03-04T13:55:42.255Z,982.38
2018-03-04T13:56:42.218Z,982.37
2018-03-04T13:58:35.081Z,982.38
2018-03-04T13:59:35.060Z,982.34
2018-03-04T14:01:28.425Z,982.30
2018-03-04T14:02:28.396Z,982.30
2018-03-04T14:04:21.247Z,982.34
2018-03-04T14:05:21.232Z,982.30
2018-03-04T14:07:14.110Z,982.32
2018-03-04T14:08:14.078Z,982.32
2018-03-04T14:10:06.934Z,982.24
2018-03-04T14:11:06.916Z,982.30
2018-03-04T14:12:59.797Z,982.22
2018-03-04T14:13:59.758Z,982.20
2018-03-04T14:15:52.613Z,982.07
2018-03-04T14:16:52.610Z,982.13
2018-03-04T14:18:45.466Z,982.08
2018-03-04T14:19:45.437Z,982.05
2018-03-04T14:21:38.326Z,982.07
2018-03-04T14:22:38.275Z,982.07
2018-03-04T14:24:31.643Z,982.04
2018-03-04T14:25:31.609Z,982.03
2018-03-04T14:27:24.467Z,981.97
2018-03-04T14:28:24.466Z,981.98
2018-03-04T14:30:17.327Z,981.94
2018-03-04T14:31:17.292Z,981.91
2018-03-04T14:33:10.149Z,981.90
2018-03-04T14:34:10.137Z,981.89
2018-03-04T14:36:03.011Z,981.90
2018-03-04T14:37:02.974Z,981.97
2018-03-04T14:38:55.832Z,981.96
2018-03-04T14:39:55.822Z,981.95
2018-03-04T14:41:48.687Z,981.90
2018-03-04T14:42:48.658Z,981.84
2018-03-04T14:44:41.514Z,981.85
2018-03-04T14:45:41.499Z,981.81
2018-03-04T14:47:34.374Z,981.73
2018-03-04T14:48:34.340Z,981.70
2018-03-04T14:50:27.689Z,981.65
2018-03-04T14:51:27.674Z,981.60
2018-03-04T14:53:20.552Z,981.71
2018-03-04T14:54:20.517Z,981.66
2018-03-04T14:56:13.870Z,981.64
2018-03-04T14:57:13.854Z,981.64
2018-03-04T14:59:06.725Z,981.65
2018-03-04T15:00:06.692Z,981.66
2018-03-04T15:02:00.060Z,981.74
2018-03-04T15:03:00.028Z,981.72
2018-03-04T15:04:52.901Z,981.77
2018-03-04T15:05:52.871Z,981.74
2018-03-04T15:07:45.734Z,981.84
2018-03-04T15:08:45.716Z,981.79
2018-03-04T15:10:38.588Z,981.87
2018-03-04T15:11:38.555Z,981.85
2018-03-04T15:13:31.415Z,981.85
2018-03-04T15:14:31.401Z,981.88
2018-03-04T15:16:24.274Z,981.85
2018-03-04T15:17:24.242Z,981.81
2018-03-04T15:19:17.104Z,981.89
2018-03-04T15:20:17.091Z,981.77
2018-03-04T15:22:09.963Z,981.73
2018-03-04T15:23:09.931Z,981.70
2018-03-04T15:25:03.278Z,981.70
2018-03-04T15:26:03.258Z,981.66
2018-03-04T15:27:56.128Z,981.52
2018-03-04T15:28:56.097Z,981.44
2018-03-04T15:30:48.955Z,981.38
2018-03-04T15:31:48.937Z,981.34
2018-03-04T15:33:41.814Z,981.36
2018-03-04T15:34:41.785Z,981.30
2018-03-04T15:36:34.637Z,981.33
2018-03-04T15:37:34.622Z,981.30
2018-03-04T15:39:27.493Z,981.26
2018-03-04T15:40:27.465Z,981.28
2018-03-04T15:42:20.314Z,981.22
2018-03-04T15:43:20.309Z,981.25
2018-03-04T15:45:13.662Z,981.20
2018-03-04T15:46:13.628Z,981.24
2018-03-04T15:48:06.482Z,981.25
2018-03-04T15:49:06.465Z,981.28
2018-03-04T15:50:59.336Z,981.33
2018-03-04T15:51:59.302Z,981.33
2018-03-04T15:53:52.160Z,981.38
2018-03-04T15:54:52.143Z,981.36
2018-03-04T15:56:45.067Z,981.35
2018-03-04T15:57:44.980Z,981.32
2018-03-04T15:59:37.833Z,981.37
2018-03-04T16:00:37.831Z,981.32
2018-03-04T16:02:30.690Z,981.33
2018-03-04T16:03:30.663Z,981.32
2018-03-04T16:05:23.508Z,981.33
2018-03-04T16:06:23.490Z,981.29
2018-03-04T16:08:16.359Z,981.27
2018-03-04T16:09:16.323Z,981.24
2018-03-04T16:11:09.183Z,981.21
2018-03-04T16:12:09.165Z,981.22
2018-03-04T16:14:02.040Z,981.26
2018-03-04T16:15:02.005Z,981.29
2018-03-04T16:16:54.862Z,981.33
2018-03-04T16:17:54.842Z,981.27
2018-03-04T16:19:47.712Z,981.23
2018-03-04T16:20:47.688Z,981.21
2018-03-04T16:22:41.034Z,981.18
2018-03-04T16:23:41.018Z,981.17
2018-03-04T16:25:33.901Z,981.16
2018-03-04T16:26:33.851Z,981.08
2018-03-04T16:28:26.708Z,981.15
2018-03-04T16:29:26.693Z,981.12
2018-03-04T16:31:19.570Z,981.10
2018-03-04T16:32:19.530Z,981.07
2018-03-04T16:34:12.880Z,981.11
2018-03-04T16:35:12.862Z,981.05
2018-03-04T16:37:06.280Z,981.06
2018-03-04T16:38:06.196Z,981.09
2018-03-04T16:39:59.547Z,981.13
2018-03-04T16:40:59.526Z,981.17
2018-03-04T16:42:52.392Z,981.13
2018-03-04T16:43:52.358Z,981.16
2018-03-04T16:45:45.709Z,981.19
2018-03-04T16:46:45.689Z,981.23
2018-03-04T16:48:39.053Z,981.23
2018-03-04T16:49:39.019Z,981.25
2018-03-04T16:51:31.874Z,981.21
2018-03-04T16:52:31.853Z,981.16
2018-03-04T16:54:25.240Z,981.16
2018-03-04T16:55:25.190Z,981.15
2018-03-04T16:57:18.552Z,981.18
2018-03-04T16:58:18.523Z,981.14
2018-03-04T17:00:11.890Z,981.07
2018-03-04T17:01:11.856Z,980.99
2018-03-04T17:03:04.720Z,981.01
2018-03-04T17:04:04.694Z,981.01
2018-03-04T17:05:57.570Z,981.02
2018-03-04T17:06:57.538Z,981.02
2018-03-04T17:08:50.887Z,980.95
2018-03-04T17:09:50.876Z,980.98
2018-03-04T17:11:44.234Z,981.03
2018-03-04T17:12:44.196Z,981.03
2018-03-04T17:14:37.546Z,981.00
2018-03-04T17:15:37.527Z,981.10
2018-03-04T17:17:30.893Z,981.06
2018-03-04T17:18:30.875Z,981.14
2018-03-04T17:20:23.717Z,981.12
2018-03-04T17:21:23.874Z,981.15
2018-03-04T17:23:16.573Z,981.25
2018-03-04T17:24:16.529Z,981.34
2018-03-04T17:26:09.386Z,981.36
2018-03-04T17:27:09.369Z,981.40
2018-03-04T17:29:02.250Z,981.39
2018-03-04T17:30:02.205Z,981.46
2018-03-04T17:31:55.581Z,981.52
2018-03-04T17:32:55.529Z,981.52
2018-03-04T17:34:48.409Z,981.51
2018-03-04T17:35:48.370Z,981.51
2018-03-04T17:37:41.223Z,981.54
2018-03-04T17:38:41.207Z,981.45
2018-03-04T17:40:34.071Z,981.45
2018-03-04T17:41:34.037Z,981.46
2018-03-04T17:43:26.900Z,981.38
2018-03-04T17:44:26.880Z,981.32
2018-03-04T17:46:20.248Z,981.23
2018-03-04T17:47:20.216Z,981.22
2018-03-04T17:49:13.560Z,981.14
2018-03-04T17:50:13.542Z,981.10
2018-03-04T17:52:06.914Z,981.12
2018-03-04T17:53:06.879Z,981.04
2018-03-04T17:55:00.228Z,981.01
2018-03-04T17:56:00.205Z,981.01
2018-03-04T17:57:53.104Z,981.05
2018-03-04T17:58:53.042Z,981.06
2018-03-04T18:00:45.889Z,980.89
2018-03-04T18:01:45.862Z,980.93
2018-03-04T18:03:38.741Z,980.90